Terminal Aerodrome Forecast
Issued by NWS

Home | Current Version | Previous Version | Text Only | Print | Product List | Glossary On
Versions: 1 2 3 4 5 6 7 8 9 10 11 12 13 14 15 16 17 18 19 20 21 22 23 24 25 26 27 28 29 30 31 32
309
FTUS41 KBOX 252010 AAA
TAFBAF
TAF AMD
KBAF 252010Z 2520/2618 02008KT 3SM -SHRA BR FEW008 OVC015
     FM260000 03009KT 4SM -SHRA BR OVC010
     FM260200 02009KT 3SM -SHRA BR OVC008
     FM261400 03006KT 5SM BR VCSH OVC008=

USA.gov is the U.S. government's official web portal to all federal, state and local government web resources and services.